sensor_id;sensor_type;location;lat;lon;timestamp;temperature;humidity
70807;DHT22;58882;52.170;5.386;2023-06-26T00:01:00;26.40;46.50
70807;DHT22;58882;52.170;5.386;2023-06-26T00:03:54;26.40;46.50
70807;DHT22;58882;52.170;5.386;2023-06-26T00:06:27;26.30;46.40
70807;DHT22;58882;52.170;5.386;2023-06-26T00:09:21;26.40;46.50
70807;DHT22;58882;52.170;5.386;2023-06-26T00:12:02;26.40;46.50
70807;DHT22;58882;52.170;5.386;2023-06-26T00:14:49;26.30;46.50
70807;DHT22;58882;52.170;5.386;2023-06-26T00:17:22;26.30;46.50
70807;DHT22;58882;52.170;5.386;2023-06-26T00:20:16;26.30;46.40
70807;DHT22;58882;52.170;5.386;2023-06-26T00:22:59;26.30;46.50
70807;DHT22;58882;52.170;5.386;2023-06-26T00:25:47;26.30;46.40
70807;DHT22;58882;52.170;5.386;2023-06-26T00:28:27;26.30;47.40
70807;DHT22;58882;52.170;5.386;2023-06-26T00:31:14;26.30;46.50
70807;DHT22;58882;52.170;5.386;2023-06-26T00:33:54;26.30;46.50
70807;DHT22;58882;52.170;5.386;2023-06-26T00:36:48;26.30;46.50
70807;DHT22;58882;52.170;5.386;2023-06-26T00:39:29;26.30;46.60
70807;DHT22;58882;52.170;5.386;2023-06-26T00:42:16;26.30;46.60
70807;DHT22;58882;52.170;5.386;2023-06-26T00:44:56;26.30;46.60
70807;DHT22;58882;52.170;5.386;2023-06-26T00:47:50;26.30;46.60
70807;DHT22;58882;52.170;5.386;2023-06-26T00:50:23;26.30;46.60
70807;DHT22;58882;52.170;5.386;2023-06-26T00:53:18;26.30;46.70
70807;DHT22;58882;52.170;5.386;2023-06-26T00:56:05;26.30;46.70
70807;DHT22;58882;52.170;5.386;2023-06-26T00:59:00;26.30;47.60
70807;DHT22;58882;52.170;5.386;2023-06-26T01:01:40;26.30;46.70
70807;DHT22;58882;52.170;5.386;2023-06-26T01:04:35;26.30;46.50
70807;DHT22;58882;52.170;5.386;2023-06-26T01:07:16;26.30;46.60
70807;DHT22;58882;52.170;5.386;2023-06-26T01:10:06;26.30;46.70
70807;DHT22;58882;52.170;5.386;2023-06-26T01:12:47;26.30;46.80
70807;DHT22;58882;52.170;5.386;2023-06-26T01:15:35;26.30;46.80
70807;DHT22;58882;52.170;5.386;2023-06-26T01:18:15;26.30;46.90
70807;DHT22;58882;52.170;5.386;2023-06-26T01:21:03;26.30;46.90
70807;DHT22;58882;52.170;5.386;2023-06-26T01:24:16;26.20;46.90
70807;DHT22;58882;52.170;5.386;2023-06-26T01:27:07;26.20;46.80
70807;DHT22;58882;52.170;5.386;2023-06-26T01:29:50;26.20;46.70
70807;DHT22;58882;52.170;5.386;2023-06-26T01:32:38;26.20;46.70
70807;DHT22;58882;52.170;5.386;2023-06-26T01:35:21;26.20;46.70
70807;DHT22;58882;52.170;5.386;2023-06-26T01:38:16;26.20;46.80
70807;DHT22;58882;52.170;5.386;2023-06-26T01:40:57;26.20;46.80
70807;DHT22;58882;52.170;5.386;2023-06-26T01:52:31;26.20;46.60
70807;DHT22;58882;52.170;5.386;2023-06-26T01:58:24;26.10;46.50
70807;DHT22;58882;52.170;5.386;2023-06-26T02:01:05;26.00;46.60
70807;DHT22;58882;52.170;5.386;2023-06-26T02:03:59;26.00;46.60
70807;DHT22;58882;52.170;5.386;2023-06-26T02:06:40;26.00;46.60
70807;DHT22;58882;52.170;5.386;2023-06-26T02:09:27;26.00;46.70
70807;DHT22;58882;52.170;5.386;2023-06-26T02:12:07;26.00;46.80
70807;DHT22;58882;52.170;5.386;2023-06-26T02:14:54;26.00;46.80
70807;DHT22;58882;52.170;5.386;2023-06-26T02:17:35;26.00;47.00
70807;DHT22;58882;52.170;5.386;2023-06-26T02:20:22;26.00;47.00
70807;DHT22;58882;52.170;5.386;2023-06-26T02:23:02;26.00;46.90
70807;DHT22;58882;52.170;5.386;2023-06-26T02:25:56;25.90;46.90
70807;DHT22;58882;52.170;5.386;2023-06-26T02:28:50;25.90;47.00
70807;DHT22;58882;52.170;5.386;2023-06-26T02:31:23;25.90;47.10
70807;DHT22;58882;52.170;5.386;2023-06-26T02:34:17;25.90;47.30
70807;DHT22;58882;52.170;5.386;2023-06-26T02:36:57;25.90;47.30
70807;DHT22;58882;52.170;5.386;2023-06-26T02:39:44;25.90;47.50
70807;DHT22;58882;52.170;5.386;2023-06-26T02:42:24;25.90;47.60
70807;DHT22;58882;52.170;5.386;2023-06-26T02:45:10;25.90;47.60
70807;DHT22;58882;52.170;5.386;2023-06-26T02:47:51;25.90;47.40
70807;DHT22;58882;52.170;5.386;2023-06-26T02:50:46;25.90;47.40
70807;DHT22;58882;52.170;5.386;2023-06-26T02:53:25;25.90;47.70
70807;DHT22;58882;52.170;5.386;2023-06-26T02:56:19;25.80;47.80
70807;DHT22;58882;52.170;5.386;2023-06-26T02:59:02;25.80;47.90
70807;DHT22;58882;52.170;5.386;2023-06-26T03:01:50;25.80;47.90
70807;DHT22;58882;52.170;5.386;2023-06-26T03:04:48;25.80;48.10
70807;DHT22;58882;52.170;5.386;2023-06-26T03:07:23;25.80;48.10
70807;DHT22;58882;52.170;5.386;2023-06-26T03:10:18;25.80;48.20
70807;DHT22;58882;52.170;5.386;2023-06-26T03:12:58;25.70;49.20
70807;DHT22;58882;52.170;5.386;2023-06-26T03:15:46;25.70;48.20
70807;DHT22;58882;52.170;5.386;2023-06-26T03:18:27;25.70;48.20
70807;DHT22;58882;52.170;5.386;2023-06-26T03:21:21;25.70;48.30
70807;DHT22;58882;52.170;5.386;2023-06-26T03:24:01;25.60;48.40
70807;DHT22;58882;52.170;5.386;2023-06-26T03:26:48;25.60;48.50
70807;DHT22;58882;52.170;5.386;2023-06-26T03:29:21;25.60;48.50
70807;DHT22;58882;52.170;5.386;2023-06-26T03:32:17;25.60;48.60
70807;DHT22;58882;52.170;5.386;2023-06-26T03:34:50;25.60;48.70
70807;DHT22;58882;52.170;5.386;2023-06-26T03:37:46;25.60;48.70
70807;DHT22;58882;52.170;5.386;2023-06-26T03:40:26;25.60;48.80
70807;DHT22;58882;52.170;5.386;2023-06-26T03:43:13;25.60;48.90
70807;DHT22;58882;52.170;5.386;2023-06-26T03:46:16;25.50;49.00
70807;DHT22;58882;52.170;5.386;2023-06-26T03:49:04;25.50;49.00
70807;DHT22;58882;52.170;5.386;2023-06-26T03:51:44;25.60;49.20
70807;DHT22;58882;52.170;5.386;2023-06-26T03:54:32;25.50;49.00
70807;DHT22;58882;52.170;5.386;2023-06-26T03:57:15;25.50;48.90
70807;DHT22;58882;52.170;5.386;2023-06-26T04:00:03;25.40;48.90
70807;DHT22;58882;52.170;5.386;2023-06-26T04:02:48;25.50;48.80
70807;DHT22;58882;52.170;5.386;2023-06-26T04:05:36;25.40;48.80
70807;DHT22;58882;52.170;5.386;2023-06-26T04:08:16;25.40;50.00
70807;DHT22;58882;52.170;5.386;2023-06-26T04:11:05;25.40;49.00
70807;DHT22;58882;52.170;5.386;2023-06-26T04:13:45;25.40;49.10
70807;DHT22;58882;52.170;5.386;2023-06-26T04:16:32;25.40;49.20
70807;DHT22;58882;52.170;5.386;2023-06-26T04:19:12;25.30;50.20
70807;DHT22;58882;52.170;5.386;2023-06-26T04:21:59;25.30;49.20
70807;DHT22;58882;52.170;5.386;2023-06-26T04:24:39;25.30;49.20
70807;DHT22;58882;52.170;5.386;2023-06-26T04:27:26;25.40;49.20
70807;DHT22;58882;52.170;5.386;2023-06-26T04:30:09;25.40;49.20
70807;DHT22;58882;52.170;5.386;2023-06-26T04:32:57;25.40;49.30
70807;DHT22;58882;52.170;5.386;2023-06-26T04:35:39;25.40;49.30
70807;DHT22;58882;52.170;5.386;2023-06-26T04:38:35;25.30;49.20
70807;DHT22;58882;52.170;5.386;2023-06-26T04:41:15;25.40;49.20
70807;DHT22;58882;52.170;5.386;2023-06-26T04:44:02;25.40;49.10
70807;DHT22;58882;52.170;5.386;2023-06-26T04:46:42;25.40;49.00
70807;DHT22;58882;52.170;5.386;2023-06-26T04:49:32;25.40;50.00
70807;DHT22;58882;52.170;5.386;2023-06-26T04:52:12;25.30;49.00
70807;DHT22;58882;52.170;5.386;2023-06-26T04:55:00;25.30;49.00
70807;DHT22;58882;52.170;5.386;2023-06-26T04:57:40;25.30;49.00
70807;DHT22;58882;52.170;5.386;2023-06-26T05:00:27;25.40;49.00
70807;DHT22;58882;52.170;5.386;2023-06-26T05:03:07;25.40;48.90
70807;DHT22;58882;52.170;5.386;2023-06-26T05:05:54;25.40;49.00
70807;DHT22;58882;52.170;5.386;2023-06-26T05:08:41;25.30;49.80
70807;DHT22;58882;52.170;5.386;2023-06-26T05:11:35;25.40;48.80
70807;DHT22;58882;52.170;5.386;2023-06-26T05:14:15;25.40;48.70
70807;DHT22;58882;52.170;5.386;2023-06-26T05:17:04;25.40;48.70
70807;DHT22;58882;52.170;5.386;2023-06-26T05:19:44;25.40;48.50
70807;DHT22;58882;52.170;5.386;2023-06-26T05:22:32;25.40;48.50
70807;DHT22;58882;52.170;5.386;2023-06-26T05:25:13;25.30;48.50
70807;DHT22;58882;52.170;5.386;2023-06-26T05:28:04;25.30;48.50
70807;DHT22;58882;52.170;5.386;2023-06-26T05:30:45;25.30;48.50
70807;DHT22;58882;52.170;5.386;2023-06-26T05:33:40;25.30;48.40
70807;DHT22;58882;52.170;5.386;2023-06-26T05:36:23;25.30;48.40
70807;DHT22;58882;52.170;5.386;2023-06-26T05:39:11;25.30;48.30
70807;DHT22;58882;52.170;5.386;2023-06-26T05:41:51;25.30;48.30
70807;DHT22;58882;52.170;5.386;2023-06-26T05:44:38;25.20;48.20
70807;DHT22;58882;52.170;5.386;2023-06-26T05:47:18;25.30;48.10
70807;DHT22;58882;52.170;5.386;2023-06-26T05:50:07;25.20;47.80
70807;DHT22;58882;52.170;5.386;2023-06-26T05:52:47;25.20;47.80
70807;DHT22;58882;52.170;5.386;2023-06-26T05:55:41;25.20;47.70
70807;DHT22;58882;52.170;5.386;2023-06-26T05:58:21;25.20;47.50
70807;DHT22;58882;52.170;5.386;2023-06-26T06:01:10;25.20;47.60
70807;DHT22;58882;52.170;5.386;2023-06-26T06:03:50;25.10;48.30
70807;DHT22;58882;52.170;5.386;2023-06-26T06:06:44;25.10;47.30
70807;DHT22;58882;52.170;5.386;2023-06-26T06:09:24;25.10;47.20
70807;DHT22;58882;52.170;5.386;2023-06-26T06:12:11;25.10;47.10
70807;DHT22;58882;52.170;5.386;2023-06-26T06:14:51;25.10;46.80
70807;DHT22;58882;52.170;5.386;2023-06-26T06:17:39;25.10;46.60
70807;DHT22;58882;52.170;5.386;2023-06-26T06:20:19;25.00;46.60
70807;DHT22;58882;52.170;5.386;2023-06-26T06:23:13;25.10;46.60
70807;DHT22;58882;52.170;5.386;2023-06-26T06:25:46;25.10;46.50
70807;DHT22;58882;52.170;5.386;2023-06-26T06:28:40;25.10;46.50
70807;DHT22;58882;52.170;5.386;2023-06-26T06:31:20;25.10;46.40
70807;DHT22;58882;52.170;5.386;2023-06-26T06:34:15;25.10;46.50
70807;DHT22;58882;52.170;5.386;2023-06-26T06:36:48;25.10;46.60
70807;DHT22;58882;52.170;5.386;2023-06-26T06:39:42;25.10;46.50
70807;DHT22;58882;52.170;5.386;2023-06-26T06:42:22;25.10;46.50
70807;DHT22;58882;52.170;5.386;2023-06-26T06:45:09;25.20;46.50
70807;DHT22;58882;52.170;5.386;2023-06-26T06:47:43;25.30;46.20
70807;DHT22;58882;52.170;5.386;2023-06-26T06:50:37;25.40;46.20
70807;DHT22;58882;52.170;5.386;2023-06-26T06:53:11;25.40;45.80
70807;DHT22;58882;52.170;5.386;2023-06-26T06:56:07;25.50;45.80
70807;DHT22;58882;52.170;5.386;2023-06-26T06:59:01;25.50;45.80
70807;DHT22;58882;52.170;5.386;2023-06-26T07:01:41;25.50;45.80
70807;DHT22;58882;52.170;5.386;2023-06-26T07:04:28;25.60;45.80
70807;DHT22;58882;52.170;5.386;2023-06-26T07:07:08;25.60;45.70
70807;DHT22;58882;52.170;5.386;2023-06-26T07:10:10;25.70;45.60
70807;DHT22;58882;52.170;5.386;2023-06-26T07:12:50;25.70;45.50
70807;DHT22;58882;52.170;5.386;2023-06-26T07:15:37;25.80;45.50
70807;DHT22;58882;52.170;5.386;2023-06-26T07:18:17;25.80;45.50
70807;DHT22;58882;52.170;5.386;2023-06-26T07:21:04;25.80;45.40
70807;DHT22;58882;52.170;5.386;2023-06-26T07:23:44;25.80;45.60
70807;DHT22;58882;52.170;5.386;2023-06-26T07:26:31;25.80;45.60
70807;DHT22;58882;52.170;5.386;2023-06-26T07:29:18;25.90;45.50
70807;DHT22;58882;52.170;5.386;2023-06-26T07:32:05;25.90;45.50
70807;DHT22;58882;52.170;5.386;2023-06-26T07:34:47;25.80;46.60
70807;DHT22;58882;52.170;5.386;2023-06-26T07:37:34;25.80;45.60
70807;DHT22;58882;52.170;5.386;2023-06-26T07:40:14;25.90;45.70
70807;DHT22;58882;52.170;5.386;2023-06-26T07:43:01;26.10;45.20
70807;DHT22;58882;52.170;5.386;2023-06-26T07:45:41;26.20;44.90
70807;DHT22;58882;52.170;5.386;2023-06-26T07:48:28;26.30;44.60
70807;DHT22;58882;52.170;5.386;2023-06-26T07:51:08;26.40;44.40
70807;DHT22;58882;52.170;5.386;2023-06-26T07:53:55;26.60;44.20
70807;DHT22;58882;52.170;5.386;2023-06-26T07:57:02;26.80;43.90
70807;DHT22;58882;52.170;5.386;2023-06-26T07:59:42;27.20;43.60
70807;DHT22;58882;52.170;5.386;2023-06-26T08:02:29;27.50;42.40
70807;DHT22;58882;52.170;5.386;2023-06-26T08:05:02;27.50;42.00
70807;DHT22;58882;52.170;5.386;2023-06-26T08:07:56;27.60;42.30
70807;DHT22;58882;52.170;5.386;2023-06-26T08:10:29;27.80;41.90
70807;DHT22;58882;52.170;5.386;2023-06-26T08:13:23;28.00;41.60
70807;DHT22;58882;52.170;5.386;2023-06-26T08:15:56;28.30;41.00
70807;DHT22;58882;52.170;5.386;2023-06-26T08:18:50;28.50;40.30
70807;DHT22;58882;52.170;5.386;2023-06-26T08:21:30;28.50;40.30
70807;DHT22;58882;52.170;5.386;2023-06-26T08:24:17;28.60;40.20
70807;DHT22;58882;52.170;5.386;2023-06-26T08:26:57;28.70;39.60
70807;DHT22;58882;52.170;5.386;2023-06-26T08:29:45;28.80;39.60
70807;DHT22;58882;52.170;5.386;2023-06-26T08:32:18;29.00;39.40
70807;DHT22;58882;52.170;5.386;2023-06-26T08:35:12;29.30;39.10
70807;DHT22;58882;52.170;5.386;2023-06-26T08:37:45;29.30;38.30
70807;DHT22;58882;52.170;5.386;2023-06-26T08:40:41;29.20;38.40
70807;DHT22;58882;52.170;5.386;2023-06-26T08:43:21;29.40;38.00
70807;DHT22;58882;52.170;5.386;2023-06-26T08:46:09;29.60;37.60
70807;DHT22;58882;52.170;5.386;2023-06-26T08:48:54;29.70;37.50
70807;DHT22;58882;52.170;5.386;2023-06-26T08:51:58;29.60;36.70
70807;DHT22;58882;52.170;5.386;2023-06-26T08:54:36;29.70;37.00
70807;DHT22;58882;52.170;5.386;2023-06-26T08:57:33;29.90;36.10
70807;DHT22;58882;52.170;5.386;2023-06-26T09:00:07;30.10;35.70
70807;DHT22;58882;52.170;5.386;2023-06-26T09:03:03;30.40;35.60
70807;DHT22;58882;52.170;5.386;2023-06-26T09:05:44;30.70;35.20
70807;DHT22;58882;52.170;5.386;2023-06-26T09:08:31;31.00;34.80
70807;DHT22;58882;52.170;5.386;2023-06-26T09:11:04;31.20;34.00
70807;DHT22;58882;52.170;5.386;2023-06-26T09:13:59;31.50;33.70
70807;DHT22;58882;52.170;5.386;2023-06-26T09:16:40;31.80;33.20
70807;DHT22;58882;52.170;5.386;2023-06-26T09:19:36;32.00;32.70
70807;DHT22;58882;52.170;5.386;2023-06-26T09:22:17;32.20;32.50
70807;DHT22;58882;52.170;5.386;2023-06-26T09:25:05;32.30;32.30
70807;DHT22;58882;52.170;5.386;2023-06-26T09:27:45;32.40;31.80
70807;DHT22;58882;52.170;5.386;2023-06-26T09:30:32;32.50;31.50
70807;DHT22;58882;52.170;5.386;2023-06-26T09:33:20;32.40;31.40
70807;DHT22;58882;52.170;5.386;2023-06-26T09:36:08;32.40;31.40
70807;DHT22;58882;52.170;5.386;2023-06-26T09:38:45;32.60;31.10
70807;DHT22;58882;52.170;5.386;2023-06-26T09:41:41;32.50;32.20
70807;DHT22;58882;52.170;5.386;2023-06-26T09:44:15;32.50;31.00
70807;DHT22;58882;52.170;5.386;2023-06-26T09:47:09;32.50;30.70
70807;DHT22;58882;52.170;5.386;2023-06-26T09:49:49;32.30;31.10
70807;DHT22;58882;52.170;5.386;2023-06-26T09:52:37;32.20;31.40
70807;DHT22;58882;52.170;5.386;2023-06-26T09:55:20;32.10;31.20
70807;DHT22;58882;52.170;5.386;2023-06-26T09:58:10;32.10;30.70
70807;DHT22;58882;52.170;5.386;2023-06-26T10:00:51;31.90;31.20
70807;DHT22;58882;52.170;5.386;2023-06-26T10:03:39;32.00;31.40
70807;DHT22;58882;52.170;5.386;2023-06-26T10:06:12;32.20;31.00
70807;DHT22;58882;52.170;5.386;2023-06-26T10:09:08;32.40;30.60
70807;DHT22;58882;52.170;5.386;2023-06-26T10:11:55;32.40;30.30
70807;DHT22;58882;52.170;5.386;2023-06-26T10:14:52;32.40;30.10
70807;DHT22;58882;52.170;5.386;2023-06-26T10:17:35;32.40;30.20
70807;DHT22;58882;52.170;5.386;2023-06-26T10:20:30;32.40;30.00
70807;DHT22;58882;52.170;5.386;2023-06-26T10:23:05;32.60;30.00
70807;DHT22;58882;52.170;5.386;2023-06-26T10:26:01;32.70;29.80
70807;DHT22;58882;52.170;5.386;2023-06-26T10:28:38;32.90;30.50
70807;DHT22;58882;52.170;5.386;2023-06-26T10:31:33;33.00;29.50
70807;DHT22;58882;52.170;5.386;2023-06-26T10:34:07;33.00;29.50
70807;DHT22;58882;52.170;5.386;2023-06-26T10:37:02;33.00;29.30
70807;DHT22;58882;52.170;5.386;2023-06-26T10:39:47;33.10;29.30
70807;DHT22;58882;52.170;5.386;2023-06-26T10:42:42;33.10;28.30
70807;DHT22;58882;52.170;5.386;2023-06-26T10:45:18;33.20;28.10
70807;DHT22;58882;52.170;5.386;2023-06-26T10:48:14;33.20;27.50
70807;DHT22;58882;52.170;5.386;2023-06-26T10:50:48;33.20;28.00
70807;DHT22;58882;52.170;5.386;2023-06-26T10:53:42;33.20;28.20
70807;DHT22;58882;52.170;5.386;2023-06-26T10:56:18;33.20;28.20
70807;DHT22;58882;52.170;5.386;2023-06-26T10:59:16;33.20;28.90
70807;DHT22;58882;52.170;5.386;2023-06-26T11:02:04;33.20;27.90
70807;DHT22;58882;52.170;5.386;2023-06-26T11:04:59;33.20;28.00
70807;DHT22;58882;52.170;5.386;2023-06-26T11:07:33;33.20;28.20
70807;DHT22;58882;52.170;5.386;2023-06-26T11:10:27;33.20;28.00
70807;DHT22;58882;52.170;5.386;2023-06-26T11:13:07;33.10;28.10
70807;DHT22;58882;52.170;5.386;2023-06-26T11:15:54;33.10;28.20
70807;DHT22;58882;52.170;5.386;2023-06-26T11:18:36;33.10;28.20
70807;DHT22;58882;52.170;5.386;2023-06-26T11:21:30;33.10;27.80
70807;DHT22;58882;52.170;5.386;2023-06-26T11:24:06;33.00;28.10
70807;DHT22;58882;52.170;5.386;2023-06-26T11:27:01;32.90;28.10
70807;DHT22;58882;52.170;5.386;2023-06-26T11:29:35;32.80;28.10
70807;DHT22;58882;52.170;5.386;2023-06-26T11:32:29;32.80;28.20
70807;DHT22;58882;52.170;5.386;2023-06-26T11:35:09;32.80;28.10
70807;DHT22;58882;52.170;5.386;2023-06-26T11:37:57;32.80;28.10
70807;DHT22;58882;52.170;5.386;2023-06-26T11:40:40;32.60;28.20
70807;DHT22;58882;52.170;5.386;2023-06-26T11:43:27;32.40;28.50
70807;DHT22;58882;52.170;5.386;2023-06-26T11:46:07;32.30;28.50
70807;DHT22;58882;52.170;5.386;2023-06-26T11:48:54;32.20;28.50
70807;DHT22;58882;52.170;5.386;2023-06-26T11:51:34;32.10;28.40
70807;DHT22;58882;52.170;5.386;2023-06-26T11:54:24;32.10;28.40
70807;DHT22;58882;52.170;5.386;2023-06-26T11:57:15;32.10;28.60
70807;DHT22;58882;52.170;5.386;2023-06-26T11:59:55;32.10;28.30
70807;DHT22;58882;52.170;5.386;2023-06-26T12:02:45;32.10;28.20
70807;DHT22;58882;52.170;5.386;2023-06-26T12:05:20;32.00;28.60
70807;DHT22;58882;52.170;5.386;2023-06-26T12:08:14;32.00;28.60
70807;DHT22;58882;52.170;5.386;2023-06-26T12:10:54;31.90;28.60
70807;DHT22;58882;52.170;5.386;2023-06-26T12:13:41;31.80;28.00
70807;DHT22;58882;52.170;5.386;2023-06-26T12:16:21;31.70;27.70
70807;DHT22;58882;52.170;5.386;2023-06-26T12:19:08;31.60;28.40
70807;DHT22;58882;52.170;5.386;2023-06-26T12:21:48;31.50;28.30
70807;DHT22;58882;52.170;5.386;2023-06-26T12:24:37;31.40;28.10
70807;DHT22;58882;52.170;5.386;2023-06-26T12:27:19;31.40;28.40
70807;DHT22;58882;52.170;5.386;2023-06-26T12:30:13;31.30;27.90
70807;DHT22;58882;52.170;5.386;2023-06-26T12:32:53;31.30;28.40
70807;DHT22;58882;52.170;5.386;2023-06-26T12:35:40;31.30;28.50
70807;DHT22;58882;52.170;5.386;2023-06-26T12:38:20;31.20;28.60
70807;DHT22;58882;52.170;5.386;2023-06-26T12:41:13;31.20;28.70
70807;DHT22;58882;52.170;5.386;2023-06-26T12:43:56;31.20;28.70
70807;DHT22;58882;52.170;5.386;2023-06-26T12:46:43;31.10;28.20
70807;DHT22;58882;52.170;5.386;2023-06-26T12:52:29;31.00;28.80
70807;DHT22;58882;52.170;5.386;2023-06-26T12:55:09;30.90;28.40
70807;DHT22;58882;52.170;5.386;2023-06-26T12:58:03;30.80;28.10
70807;DHT22;58882;52.170;5.386;2023-06-26T13:00:36;30.70;28.60
70807;DHT22;58882;52.170;5.386;2023-06-26T13:03:30;30.60;28.90
70807;DHT22;58882;52.170;5.386;2023-06-26T13:06:05;30.60;28.90
70807;DHT22;58882;52.170;5.386;2023-06-26T13:09:01;30.50;28.90
70807;DHT22;58882;52.170;5.386;2023-06-26T13:11:37;30.40;29.10
70807;DHT22;58882;52.170;5.386;2023-06-26T13:14:33;30.30;29.10
70807;DHT22;58882;52.170;5.386;2023-06-26T13:17:06;30.20;29.10
70807;DHT22;58882;52.170;5.386;2023-06-26T13:20:00;30.10;28.90
70807;DHT22;58882;52.170;5.386;2023-06-26T13:22:33;30.00;29.40
70807;DHT22;58882;52.170;5.386;2023-06-26T13:25:27;29.90;29.50
70807;DHT22;58882;52.170;5.386;2023-06-26T13:28:00;29.90;29.60
70807;DHT22;58882;52.170;5.386;2023-06-26T13:30:54;29.80;29.80
70807;DHT22;58882;52.170;5.386;2023-06-26T13:33:27;29.80;29.90
70807;DHT22;58882;52.170;5.386;2023-06-26T13:36:21;29.70;30.00
70807;DHT22;58882;52.170;5.386;2023-06-26T13:39:02;29.70;30.00
70807;DHT22;58882;52.170;5.386;2023-06-26T13:41:49;29.60;29.80
70807;DHT22;58882;52.170;5.386;2023-06-26T13:44:29;29.60;30.00
70807;DHT22;58882;52.170;5.386;2023-06-26T13:47:39;29.50;30.20
70807;DHT22;58882;52.170;5.386;2023-06-26T13:50:19;29.40;29.70
70807;DHT22;58882;52.170;5.386;2023-06-26T13:53:27;29.40;29.70
70807;DHT22;58882;52.170;5.386;2023-06-26T13:56:14;29.30;30.00
70807;DHT22;58882;52.170;5.386;2023-06-26T13:58:54;29.30;30.30
70807;DHT22;58882;52.170;5.386;2023-06-26T14:01:42;29.20;30.40
70807;DHT22;58882;52.170;5.386;2023-06-26T14:04:23;29.20;30.30
70807;DHT22;58882;52.170;5.386;2023-06-26T14:07:10;29.20;30.30
70807;DHT22;58882;52.170;5.386;2023-06-26T14:09:50;29.10;30.60
70807;DHT22;58882;52.170;5.386;2023-06-26T14:12:37;29.10;30.50
70807;DHT22;58882;52.170;5.386;2023-06-26T14:15:17;29.00;30.10
70807;DHT22;58882;52.170;5.386;2023-06-26T14:18:04;29.00;30.10
70807;DHT22;58882;52.170;5.386;2023-06-26T14:20:44;29.00;30.10
70807;DHT22;58882;52.170;5.386;2023-06-26T14:23:31;28.90;30.30
70807;DHT22;58882;52.170;5.386;2023-06-26T14:26:11;28.90;30.50
70807;DHT22;58882;52.170;5.386;2023-06-26T14:28:58;28.80;30.50
70807;DHT22;58882;52.170;5.386;2023-06-26T14:31:38;28.80;31.70
70807;DHT22;58882;52.170;5.386;2023-06-26T14:34:28;28.70;30.70
70807;DHT22;58882;52.170;5.386;2023-06-26T14:37:08;28.70;30.00
70807;DHT22;58882;52.170;5.386;2023-06-26T14:39:57;28.60;30.00
70807;DHT22;58882;52.170;5.386;2023-06-26T14:42:38;28.50;30.20
70807;DHT22;58882;52.170;5.386;2023-06-26T14:45:32;28.40;30.10
70807;DHT22;58882;52.170;5.386;2023-06-26T14:48:12;28.40;30.10
70807;DHT22;58882;52.170;5.386;2023-06-26T14:50:59;28.30;30.40
70807;DHT22;58882;52.170;5.386;2023-06-26T14:53:40;28.20;30.80
70807;DHT22;58882;52.170;5.386;2023-06-26T14:56:34;28.20;30.70
70807;DHT22;58882;52.170;5.386;2023-06-26T14:59:28;28.20;30.90
70807;DHT22;58882;52.170;5.386;2023-06-26T15:02:01;28.20;30.30
70807;DHT22;58882;52.170;5.386;2023-06-26T15:04:55;28.10;30.40
70807;DHT22;58882;52.170;5.386;2023-06-26T15:07:35;28.00;30.30
70807;DHT22;58882;52.170;5.386;2023-06-26T15:10:22;27.80;30.50
70807;DHT22;58882;52.170;5.386;2023-06-26T15:13:05;27.80;30.50
70807;DHT22;58882;52.170;5.386;2023-06-26T15:15:53;27.70;30.90
70807;DHT22;58882;52.170;5.386;2023-06-26T15:18:26;27.60;31.10
70807;DHT22;58882;52.170;5.386;2023-06-26T15:21:20;27.60;31.10
70807;DHT22;58882;52.170;5.386;2023-06-26T15:24:00;27.60;30.90
70807;DHT22;58882;52.170;5.386;2023-06-26T15:26:47;27.50;31.40
70807;DHT22;58882;52.170;5.386;2023-06-26T15:29:27;27.40;31.10
70807;DHT22;58882;52.170;5.386;2023-06-26T15:32:14;27.30;31.20
70807;DHT22;58882;52.170;5.386;2023-06-26T15:34:54;27.10;31.40
70807;DHT22;58882;52.170;5.386;2023-06-26T15:37:41;27.00;31.90
70807;DHT22;58882;52.170;5.386;2023-06-26T15:40:21;26.90;32.10
70807;DHT22;58882;52.170;5.386;2023-06-26T15:43:15;26.90;32.10
70807;DHT22;58882;52.170;5.386;2023-06-26T15:45:48;26.90;32.10
70807;DHT22;58882;52.170;5.386;2023-06-26T15:48:42;26.80;31.80
70807;DHT22;58882;52.170;5.386;2023-06-26T15:51:16;26.80;31.90
70807;DHT22;58882;52.170;5.386;2023-06-26T15:54:10;26.70;32.10
70807;DHT22;58882;52.170;5.386;2023-06-26T15:56:57;26.50;32.40
70807;DHT22;58882;52.170;5.386;2023-06-26T15:59:51;26.40;32.70
70807;DHT22;58882;52.170;5.386;2023-06-26T16:02:38;26.40;32.90
70807;DHT22;58882;52.170;5.386;2023-06-26T16:05:25;26.40;32.60
70807;DHT22;58882;52.170;5.386;2023-06-26T16:08:05;26.30;32.30
70807;DHT22;58882;52.170;5.386;2023-06-26T16:10:53;26.30;32.80
70807;DHT22;58882;52.170;5.386;2023-06-26T16:13:33;26.20;32.80
70807;DHT22;58882;52.170;5.386;2023-06-26T16:16:23;26.20;32.60
70807;DHT22;58882;52.170;5.386;2023-06-26T16:19:03;26.10;32.10
70807;DHT22;58882;52.170;5.386;2023-06-26T16:21:57;26.10;32.30
70807;DHT22;58882;52.170;5.386;2023-06-26T16:24:37;26.10;32.00
70807;DHT22;58882;52.170;5.386;2023-06-26T16:27:24;26.10;31.60
70807;DHT22;58882;52.170;5.386;2023-06-26T16:30:04;26.10;31.60
70807;DHT22;58882;52.170;5.386;2023-06-26T16:32:52;26.10;31.60
70807;DHT22;58882;52.170;5.386;2023-06-26T16:35:33;26.00;31.80
70807;DHT22;58882;52.170;5.386;2023-06-26T16:38:20;26.00;32.00
70807;DHT22;58882;52.170;5.386;2023-06-26T16:41:00;26.00;31.70
70807;DHT22;58882;52.170;5.386;2023-06-26T16:43:47;26.00;32.00
70807;DHT22;58882;52.170;5.386;2023-06-26T16:46:27;26.00;31.90
70807;DHT22;58882;52.170;5.386;2023-06-26T16:49:14;25.90;32.00
70807;DHT22;58882;52.170;5.386;2023-06-26T16:51:54;26.00;31.90
70807;DHT22;58882;52.170;5.386;2023-06-26T16:54:49;26.00;31.90
70807;DHT22;58882;52.170;5.386;2023-06-26T16:57:36;26.10;32.00
70807;DHT22;58882;52.170;5.386;2023-06-26T17:00:16;26.00;32.00
70807;DHT22;58882;52.170;5.386;2023-06-26T17:03:03;26.00;32.40
70807;DHT22;58882;52.170;5.386;2023-06-26T17:05:37;26.00;32.50
70807;DHT22;58882;52.170;5.386;2023-06-26T17:08:31;26.00;32.50
70807;DHT22;58882;52.170;5.386;2023-06-26T17:11:11;26.00;32.40
70807;DHT22;58882;52.170;5.386;2023-06-26T17:13:58;26.00;32.40
70807;DHT22;58882;52.170;5.386;2023-06-26T17:16:31;26.00;32.50
70807;DHT22;58882;52.170;5.386;2023-06-26T17:19:25;26.00;32.50
70807;DHT22;58882;52.170;5.386;2023-06-26T17:21:58;26.00;32.40
70807;DHT22;58882;52.170;5.386;2023-06-26T17:24:52;26.00;32.60
70807;DHT22;58882;52.170;5.386;2023-06-26T17:27:38;26.00;32.60
70807;DHT22;58882;52.170;5.386;2023-06-26T17:30:32;26.00;32.50
70807;DHT22;58882;52.170;5.386;2023-06-26T17:33:14;25.90;32.60
70807;DHT22;58882;52.170;5.386;2023-06-26T17:36:01;25.90;32.50
70807;DHT22;58882;52.170;5.386;2023-06-26T17:38:34;25.80;32.80